createdAt,value
2019-02-11T00:01:46.552Z,94.01
2019-02-11T00:04:15.812Z,94.09
2019-02-11T00:06:45.137Z,94.19
2019-02-11T00:09:14.502Z,94.06
2019-02-11T00:11:43.874Z,94.17
2019-02-11T00:14:13.155Z,94.11
2019-02-11T00:16:42.632Z,94.11
2019-02-11T00:19:11.940Z,94.05
2019-02-11T00:21:41.353Z,94.00
2019-02-11T00:24:10.658Z,93.91
2019-02-11T00:26:39.978Z,94.00
2019-02-11T00:29:09.347Z,93.88
2019-02-11T00:31:38.943Z,93.81
2019-02-11T00:34:08.207Z,93.81
2019-02-11T00:36:37.532Z,93.82
2019-02-11T00:39:07.899Z,93.78
2019-02-11T00:41:37.203Z,93.65
2019-02-11T00:44:06.486Z,93.56
2019-02-11T00:46:35.856Z,93.50
2019-02-11T00:49:05.257Z,93.58
2019-02-11T00:51:34.538Z,93.58
2019-02-11T00:54:03.833Z,93.65
2019-02-11T00:56:33.218Z,93.92
2019-02-11T00:59:02.529Z,93.74
2019-02-11T01:01:32.014Z,93.77
2019-02-11T01:04:01.509Z,93.84
2019-02-11T01:06:30.843Z,93.85
2019-02-11T01:09:00.369Z,93.73
2019-02-11T01:11:29.680Z,93.83
2019-02-11T01:13:59.041Z,93.71
2019-02-11T01:16:28.491Z,93.64
2019-02-11T01:18:57.775Z,93.67
2019-02-11T01:21:27.112Z,93.69
2019-02-11T01:23:56.625Z,93.82
2019-02-11T01:26:25.903Z,93.71
2019-02-11T01:28:55.198Z,93.58
2019-02-11T01:31:24.636Z,93.48
2019-02-11T01:33:53.958Z,93.66
2019-02-11T01:36:23.243Z,93.69
2019-02-11T01:38:52.807Z,93.83
2019-02-11T01:41:22.132Z,93.72
2019-02-11T01:43:52.467Z,93.79
2019-02-11T01:46:21.961Z,93.79
2019-02-11T01:48:51.408Z,93.71
2019-02-11T01:51:20.745Z,93.81
2019-02-11T01:53:50.305Z,93.66
2019-02-11T01:56:19.595Z,93.47
2019-02-11T01:58:48.926Z,93.46
2019-02-11T02:01:18.380Z,93.43
2019-02-11T02:03:47.674Z,93.59
2019-02-11T02:06:16.981Z,93.55
2019-02-11T02:08:46.449Z,93.26
2019-02-11T02:11:15.721Z,93.11
2019-02-11T02:13:45.221Z,93.46
2019-02-11T02:16:14.801Z,93.18
2019-02-11T02:18:44.070Z,93.44
2019-02-11T02:21:13.331Z,93.22
2019-02-11T02:23:42.897Z,93.26
2019-02-11T02:26:12.193Z,93.30
2019-02-11T02:28:41.482Z,93.35
2019-02-11T02:31:10.979Z,93.31
2019-02-11T02:33:40.240Z,93.27
2019-02-11T02:36:09.531Z,93.37
2019-02-11T02:38:38.955Z,93.51
2019-02-11T02:41:08.358Z,93.54
2019-02-11T02:43:37.622Z,93.68
2019-02-11T02:46:07.081Z,93.73
2019-02-11T02:48:36.402Z,93.85
2019-02-11T02:51:05.655Z,93.79
2019-02-11T02:53:35.042Z,93.66
2019-02-11T02:56:04.348Z,93.75
2019-02-11T02:58:33.636Z,93.61
2019-02-11T03:01:03.167Z,93.34
2019-02-11T03:03:32.494Z,93.27
2019-02-11T03:06:01.776Z,93.46
2019-02-11T03:08:31.310Z,93.52
2019-02-11T03:11:00.619Z,93.53
2019-02-11T03:13:29.875Z,93.68
2019-02-11T03:15:59.185Z,93.87
2019-02-11T03:18:28.486Z,94.04
2019-02-11T03:20:57.768Z,94.17
2019-02-11T03:23:27.314Z,94.25
2019-02-11T03:25:56.621Z,94.38
2019-02-11T03:28:25.946Z,94.47
2019-02-11T03:30:55.510Z,94.55
2019-02-11T03:33:24.765Z,94.42
2019-02-11T03:35:54.096Z,94.35
2019-02-11T03:38:23.615Z,93.96
2019-02-11T03:40:52.900Z,93.98
2019-02-11T03:43:22.165Z,94.12
2019-02-11T03:45:51.544Z,94.23
2019-02-11T03:48:20.937Z,94.26
2019-02-11T03:50:50.318Z,94.48
2019-02-11T03:53:19.934Z,94.37
2019-02-11T03:55:49.283Z,94.41
2019-02-11T03:58:18.616Z,94.44
2019-02-11T04:00:48.093Z,94.45
2019-02-11T04:03:17.377Z,94.48
2019-02-11T04:05:46.673Z,94.61
2019-02-11T04:08:16.178Z,94.52
2019-02-11T04:10:45.478Z,94.50
2019-02-11T04:13:14.775Z,94.42
2019-02-11T04:15:44.342Z,94.49
2019-02-11T04:18:13.702Z,94.56
2019-02-11T04:20:42.982Z,94.64
2019-02-11T04:23:12.311Z,94.64
2019-02-11T04:25:41.616Z,94.73
2019-02-11T04:28:10.904Z,94.43
2019-02-11T04:30:40.270Z,94.34
2019-02-11T04:33:09.607Z,93.86
2019-02-11T04:35:38.934Z,93.61
2019-02-11T04:38:08.223Z,93.24
2019-02-11T04:40:37.575Z,93.25
2019-02-11T04:43:06.878Z,93.22
2019-02-11T04:45:36.330Z,93.51
2019-02-11T04:48:05.622Z,93.61
2019-02-11T04:50:35.026Z,93.83
2019-02-11T04:53:04.552Z,93.82
2019-02-11T04:55:33.879Z,93.73
2019-02-11T04:58:03.152Z,93.88
2019-02-11T05:00:32.496Z,93.83
2019-02-11T05:03:01.786Z,93.93
2019-02-11T05:05:31.276Z,94.24
2019-02-11T05:08:00.785Z,94.17
2019-02-11T05:10:30.096Z,94.34
2019-02-11T05:12:59.416Z,94.67
2019-02-11T05:15:29.005Z,94.78
2019-02-11T05:17:58.265Z,94.90
2019-02-11T05:20:27.618Z,94.79
2019-02-11T05:22:57.169Z,94.87
2019-02-11T05:25:26.527Z,95.02
2019-02-11T05:27:55.881Z,95.14
2019-02-11T05:30:25.419Z,95.19
2019-02-11T05:32:54.693Z,95.12
2019-02-11T05:35:23.989Z,95.39
2019-02-11T05:37:53.492Z,95.51
2019-02-11T05:40:22.843Z,95.65
2019-02-11T05:42:52.094Z,95.58
2019-02-11T05:45:21.457Z,95.59
2019-02-11T05:47:50.802Z,95.41
2019-02-11T05:50:20.092Z,95.31
2019-02-11T05:52:49.483Z,95.34
2019-02-11T05:55:18.776Z,95.20
2019-02-11T05:57:48.041Z,95.10
2019-02-11T06:00:18.589Z,95.12
2019-02-11T06:02:47.929Z,94.91
2019-02-11T06:05:17.221Z,94.86
2019-02-11T06:07:46.478Z,94.89
2019-02-11T06:10:15.776Z,94.92
2019-02-11T06:12:45.137Z,94.89
2019-02-11T06:15:14.514Z,94.86
2019-02-11T06:17:43.804Z,94.93
2019-02-11T06:20:13.083Z,94.75
2019-02-11T06:22:42.553Z,94.78
2019-02-11T06:25:11.848Z,95.07
2019-02-11T06:27:41.140Z,95.26
2019-02-11T06:30:11.120Z,95.37
2019-02-11T06:32:40.430Z,95.47
2019-02-11T06:35:10.108Z,95.52
2019-02-11T06:37:39.602Z,95.61
2019-02-11T06:40:09.508Z,95.66
2019-02-11T06:42:38.830Z,95.62
2019-02-11T06:45:13.295Z,95.58
2019-02-11T06:47:40.027Z,95.79
2019-02-11T06:50:10.096Z,95.85
2019-02-11T06:52:39.658Z,95.87
2019-02-11T06:55:09.980Z,95.80
2019-02-11T06:57:39.434Z,95.85
2019-02-11T07:00:10.733Z,95.96
2019-02-11T07:02:40.165Z,96.02
2019-02-11T07:05:09.566Z,95.99
2019-02-11T07:07:39.155Z,95.99
2019-02-11T07:10:09.428Z,95.92
2019-02-11T07:12:38.731Z,95.75
2019-02-11T07:15:09.927Z,95.61
2019-02-11T07:17:39.270Z,95.55
2019-02-11T07:20:08.796Z,95.56
2019-02-11T07:22:38.271Z,95.52
2019-02-11T07:25:07.898Z,95.42
2019-02-11T07:27:37.228Z,95.38
2019-02-11T07:30:07.197Z,95.30
2019-02-11T07:32:36.459Z,95.33
2019-02-11T07:35:06.054Z,95.20
2019-02-11T07:37:35.563Z,94.96
2019-02-11T07:40:05.048Z,94.58
2019-02-11T07:42:39.599Z,94.50
2019-02-11T07:45:29.860Z,93.70
2019-02-11T07:47:54.582Z,93.56
2019-02-11T07:50:23.872Z,92.91
2019-02-11T07:52:53.199Z,92.75
2019-02-11T07:55:22.592Z,90.18
2019-02-11T07:57:51.872Z,88.64
2019-02-11T08:00:21.197Z,88.38
2019-02-11T08:02:50.595Z,88.47
2019-02-11T08:05:19.884Z,88.38
2019-02-11T08:07:49.237Z,88.44
2019-02-11T08:10:18.591Z,88.90
2019-02-11T08:12:47.876Z,88.23
2019-02-11T08:15:17.231Z,87.81
2019-02-11T08:17:46.936Z,88.09
2019-02-11T08:20:16.214Z,87.83
2019-02-11T08:22:45.494Z,88.72
2019-02-11T08:25:15.108Z,88.61
2019-02-11T08:27:44.396Z,88.87
2019-02-11T08:30:13.827Z,88.35
2019-02-11T08:32:43.415Z,88.51
2019-02-11T08:35:12.700Z,87.95
2019-02-11T08:37:41.974Z,87.93
2019-02-11T08:40:11.377Z,87.67
2019-02-11T08:42:40.725Z,87.61
2019-02-11T08:45:10.182Z,87.35
2019-02-11T08:47:39.526Z,86.22
2019-02-11T08:50:08.932Z,86.46
2019-02-11T08:52:38.320Z,86.91
2019-02-11T08:55:07.796Z,87.21
2019-02-11T08:57:37.056Z,86.71
2019-02-11T09:00:06.819Z,86.50
2019-02-11T09:02:36.311Z,85.29
2019-02-11T09:05:06.802Z,85.17
2019-02-11T09:07:36.157Z,84.48
2019-02-11T09:10:05.796Z,84.03
2019-02-11T09:12:35.066Z,82.84
2019-02-11T09:15:05.420Z,83.97
2019-02-11T09:17:34.795Z,83.52
2019-02-11T09:20:04.110Z,84.17
2019-02-11T09:22:33.397Z,84.52
2019-02-11T09:25:02.945Z,84.35
2019-02-11T09:27:32.237Z,85.21
2019-02-11T09:30:02.494Z,84.58
2019-02-11T09:32:31.777Z,84.96
2019-02-11T09:35:01.051Z,84.98
2019-02-11T09:37:30.383Z,85.54
2019-02-11T09:39:59.701Z,85.72
2019-02-11T09:42:29.042Z,85.39
2019-02-11T09:44:58.361Z,84.62
2019-02-11T09:47:27.774Z,85.53
2019-02-11T09:50:23.927Z,85.28
2019-02-11T09:52:53.379Z,84.40
2019-02-11T09:55:30.126Z,83.70
2019-02-11T09:57:59.479Z,82.83
2019-02-11T10:00:28.744Z,82.59
2019-02-11T10:02:58.042Z,81.12
2019-02-11T10:05:27.367Z,81.09
2019-02-11T10:07:56.647Z,81.78
2019-02-11T10:10:25.927Z,80.72
2019-02-11T10:12:55.409Z,79.83
2019-02-11T10:15:24.765Z,80.39
2019-02-11T10:17:54.061Z,81.11
2019-02-11T10:20:23.476Z,80.15
2019-02-11T10:22:52.808Z,78.74
2019-02-11T10:25:23.885Z,80.03
2019-02-11T10:27:54.514Z,80.59
2019-02-11T10:30:23.807Z,79.25
2019-02-11T10:32:53.219Z,79.57
2019-02-11T10:35:22.622Z,79.06
2019-02-11T10:37:51.974Z,79.83
2019-02-11T10:40:21.446Z,78.63
2019-02-11T10:42:50.802Z,77.83
2019-02-11T10:45:20.078Z,78.41
2019-02-11T10:47:49.487Z,78.80
2019-02-11T10:50:18.794Z,80.96
2019-02-11T10:52:48.242Z,82.09
2019-02-11T10:55:17.818Z,81.48
2019-02-11T10:57:47.128Z,81.45
2019-02-11T11:00:19.070Z,81.05
2019-02-11T11:02:48.420Z,81.42
2019-02-11T11:05:17.921Z,80.84
2019-02-11T11:07:47.372Z,82.46
2019-02-11T11:10:19.834Z,82.14
2019-02-11T11:12:49.252Z,82.33
2019-02-11T11:15:18.911Z,82.89
2019-02-11T11:17:48.344Z,82.13
2019-02-11T11:20:17.969Z,83.06
2019-02-11T11:22:47.347Z,82.78
2019-02-11T11:25:17.670Z,82.36
2019-02-11T11:27:47.065Z,83.47
2019-02-11T11:30:16.683Z,83.56
2019-02-11T11:32:46.202Z,83.73
2019-02-11T11:35:16.025Z,83.32
2019-02-11T11:37:45.318Z,84.23
2019-02-11T11:40:16.431Z,84.38
2019-02-11T11:42:45.860Z,83.82
2019-02-11T11:45:16.699Z,84.26
2019-02-11T11:47:46.209Z,83.49
2019-02-11T11:50:16.478Z,84.34
2019-02-11T11:52:45.879Z,83.98
2019-02-11T11:55:15.729Z,83.60
2019-02-11T11:57:45.100Z,83.99
2019-02-11T12:00:20.662Z,83.65
2019-02-11T12:03:01.652Z,84.18
2019-02-11T12:05:21.527Z,84.44
2019-02-11T12:07:51.167Z,85.12
2019-02-11T12:10:20.567Z,84.85
2019-02-11T12:12:49.888Z,84.93
2019-02-11T12:15:21.367Z,85.22
2019-02-11T12:17:50.878Z,85.27
2019-02-11T12:20:20.181Z,85.23
2019-02-11T12:22:49.756Z,84.62
2019-02-11T12:25:19.372Z,84.49
2019-02-11T12:27:48.662Z,84.95
2019-02-11T12:30:20.390Z,84.41
2019-02-11T12:32:49.728Z,85.14
2019-02-11T12:35:18.975Z,85.89
2019-02-11T12:37:48.243Z,86.37
2019-02-11T12:40:17.802Z,86.61
2019-02-11T12:42:47.043Z,86.55
2019-02-11T12:45:17.958Z,86.86
2019-02-11T12:47:47.218Z,86.43
2019-02-11T12:50:17.041Z,86.27
2019-02-11T12:52:46.480Z,86.14
2019-02-11T12:55:15.847Z,85.86
2019-02-11T12:57:45.101Z,86.68
2019-02-11T13:00:17.664Z,86.71
2019-02-11T13:02:47.470Z,86.45
2019-02-11T13:05:21.424Z,86.58
2019-02-11T13:07:48.061Z,86.55
2019-02-11T13:10:18.511Z,87.27
2019-02-11T13:12:47.806Z,87.29
2019-02-11T13:15:41.913Z,87.53
2019-02-11T13:17:48.918Z,87.32
2019-02-11T13:20:18.313Z,87.07
2019-02-11T13:22:47.516Z,86.35
2019-02-11T13:25:17.367Z,85.62
2019-02-11T13:27:46.716Z,85.64
2019-02-11T13:30:17.497Z,84.32
2019-02-11T13:32:46.808Z,84.36
2019-02-11T13:35:16.241Z,83.78
2019-02-11T13:37:45.662Z,83.70
2019-02-11T13:40:15.295Z,83.05
2019-02-11T13:42:44.595Z,82.53
2019-02-11T13:45:15.804Z,81.82
2019-02-11T13:47:57.174Z,81.19
2019-02-11T13:50:21.767Z,81.54
2019-02-11T13:52:51.914Z,81.45
2019-02-11T13:55:21.377Z,82.46
2019-02-11T13:57:51.398Z,81.41
2019-02-11T14:00:35.824Z,81.19
2019-02-11T14:03:06.469Z,81.37
2019-02-11T14:05:35.855Z,80.99
2019-02-11T14:08:06.193Z,80.97
2019-02-11T14:10:35.808Z,81.38
2019-02-11T14:13:06.079Z,81.59
2019-02-11T14:15:35.448Z,81.42
2019-02-11T14:18:15.782Z,81.10
2019-02-11T14:20:49.533Z,80.72
2019-02-11T14:23:16.681Z,80.67
2019-02-11T14:25:47.493Z,81.27
2019-02-11T14:28:17.204Z,81.15
2019-02-11T14:30:46.565Z,81.36
2019-02-11T14:33:15.971Z,81.74
2019-02-11T14:35:45.586Z,81.00
2019-02-11T14:38:14.832Z,81.38
2019-02-11T14:40:44.249Z,80.47
2019-02-11T14:43:13.627Z,80.68
2019-02-11T14:45:42.967Z,80.89
2019-02-11T14:48:27.221Z,79.30
2019-02-11T14:50:43.615Z,80.77
2019-02-11T14:53:12.972Z,80.19
2019-02-11T14:55:42.225Z,80.60
2019-02-11T14:58:11.526Z,80.89
2019-02-11T15:00:40.987Z,80.37
2019-02-11T15:03:10.375Z,80.13
2019-02-11T15:05:39.744Z,80.90
2019-02-11T15:08:09.255Z,79.01
2019-02-11T15:10:38.672Z,79.02
2019-02-11T15:13:07.956Z,79.26
2019-02-11T15:15:37.859Z,78.28
2019-02-11T15:18:07.161Z,79.18
2019-02-11T15:20:36.469Z,78.73
2019-02-11T15:23:05.823Z,79.08
2019-02-11T15:25:35.137Z,79.69
2019-02-11T15:28:04.469Z,78.87
2019-02-11T15:30:33.739Z,78.92
2019-02-11T15:33:03.048Z,80.01
2019-02-11T15:35:32.448Z,80.70
2019-02-11T15:38:01.805Z,81.05
2019-02-11T15:40:31.197Z,80.62
2019-02-11T15:43:00.507Z,80.49
2019-02-11T15:45:29.904Z,79.80
2019-02-11T15:47:59.169Z,80.07
2019-02-11T15:50:28.437Z,80.27
2019-02-11T15:52:59.087Z,79.66
2019-02-11T15:55:28.434Z,80.08
2019-02-11T15:57:57.726Z,80.56
2019-02-11T16:00:27.094Z,79.63
2019-02-11T16:02:56.404Z,81.21
2019-02-11T16:05:25.640Z,80.80
2019-02-11T16:07:54.946Z,81.32
2019-02-11T16:10:25.703Z,81.03
2019-02-11T16:12:55.036Z,81.63
2019-02-11T16:15:24.419Z,81.52
2019-02-11T16:17:53.764Z,81.77
2019-02-11T16:20:23.123Z,82.51
2019-02-11T16:22:52.390Z,82.37
2019-02-11T16:25:21.728Z,82.01
2019-02-11T16:27:51.032Z,82.41
2019-02-11T16:30:20.488Z,82.69
2019-02-11T16:32:49.855Z,82.34
2019-02-11T16:35:19.181Z,83.04
2019-02-11T16:37:49.156Z,82.63
2019-02-11T16:40:20.722Z,82.66
2019-02-11T16:42:50.032Z,82.72
2019-02-11T16:45:19.286Z,82.70
2019-02-11T16:47:48.584Z,82.84
2019-02-11T16:50:17.986Z,83.11
2019-02-11T16:52:47.326Z,82.95
2019-02-11T16:55:16.577Z,82.74
2019-02-11T16:57:45.893Z,83.36
2019-02-11T17:00:16.557Z,83.30
2019-02-11T17:02:45.903Z,84.00
2019-02-11T17:05:15.326Z,84.09
2019-02-11T17:07:44.683Z,83.91
2019-02-11T17:10:14.402Z,83.50
2019-02-11T17:12:43.696Z,84.28
2019-02-11T17:15:14.916Z,84.08
2019-02-11T17:17:44.526Z,84.50
2019-02-11T17:20:14.371Z,84.01
2019-02-11T17:22:43.674Z,83.95
2019-02-11T17:25:13.610Z,83.87
2019-02-11T17:27:42.977Z,83.46
2019-02-11T17:30:15.144Z,84.26
2019-02-11T17:32:44.455Z,84.11
2019-02-11T17:35:13.737Z,83.84
2019-02-11T17:37:43.111Z,83.33
2019-02-11T17:40:13.091Z,83.83
2019-02-11T17:42:42.481Z,83.62
2019-02-11T17:45:18.229Z,83.64
2019-02-11T17:47:47.526Z,83.57
2019-02-11T17:50:16.853Z,83.77
2019-02-11T17:52:46.282Z,83.08
2019-02-11T17:55:15.577Z,83.24
2019-02-11T17:57:44.930Z,83.45
2019-02-11T18:00:24.311Z,82.86
2019-02-11T18:02:53.703Z,83.84
2019-02-11T18:05:23.105Z,84.04
2019-02-11T18:07:52.603Z,83.89
2019-02-11T18:10:21.915Z,83.39
2019-02-11T18:12:51.214Z,83.72
2019-02-11T18:15:20.738Z,82.78
2019-02-11T18:17:50.106Z,83.20
2019-02-11T18:20:19.458Z,83.07
2019-02-11T18:22:48.975Z,83.01
2019-02-11T18:25:18.312Z,82.54
2019-02-11T18:27:47.611Z,82.53
2019-02-11T18:30:17.549Z,83.07
2019-02-11T18:32:46.971Z,82.07
2019-02-11T18:35:16.364Z,82.29
2019-02-11T18:37:45.975Z,81.04
2019-02-11T18:40:15.559Z,80.30
2019-02-11T18:42:44.874Z,80.28
2019-02-11T18:45:14.522Z,80.45
2019-02-11T18:47:43.905Z,80.13
2019-02-11T18:50:14.136Z,79.74
2019-02-11T18:52:43.743Z,79.76
2019-02-11T18:55:13.648Z,79.14
2019-02-11T18:57:43.018Z,79.51
2019-02-11T19:00:14.342Z,79.06
2019-02-11T19:02:43.712Z,77.50
2019-02-11T19:05:13.205Z,78.57
2019-02-11T19:07:42.704Z,77.72
2019-02-11T19:10:12.654Z,77.12
2019-02-11T19:12:42.004Z,78.38
2019-02-11T19:15:12.417Z,77.42
2019-02-11T19:17:41.791Z,75.75
2019-02-11T19:20:12.317Z,76.08
2019-02-11T19:22:41.881Z,75.48
2019-02-11T19:25:11.428Z,75.22
2019-02-11T19:27:40.778Z,74.79
2019-02-11T19:30:15.799Z,75.40
2019-02-11T19:32:45.087Z,76.25
2019-02-11T19:35:14.339Z,76.06
2019-02-11T19:37:43.805Z,75.61
2019-02-11T19:40:13.832Z,75.53
2019-02-11T19:42:43.154Z,77.05
2019-02-11T19:45:14.510Z,76.55
2019-02-11T19:47:43.960Z,78.12
2019-02-11T19:50:14.465Z,78.35
2019-02-11T19:52:43.999Z,79.10
2019-02-11T19:55:13.772Z,79.14
2019-02-11T19:57:43.089Z,78.96
2019-02-11T20:00:20.050Z,80.38
2019-02-11T20:02:49.778Z,80.91
2019-02-11T20:05:19.185Z,80.69
2019-02-11T20:07:48.765Z,81.39
2019-02-11T20:10:18.488Z,82.33
2019-02-11T20:12:48.108Z,82.01
2019-02-11T20:15:19.382Z,82.52
2019-02-11T20:17:48.634Z,82.52
2019-02-11T20:20:19.787Z,82.82
2019-02-11T20:22:49.132Z,83.17
2019-02-11T20:25:18.466Z,83.86
2019-02-11T20:27:48.106Z,83.73
2019-02-11T20:30:19.071Z,83.83
2019-02-11T20:32:48.415Z,83.97
2019-02-11T20:35:17.922Z,83.90
2019-02-11T20:37:47.244Z,83.62
2019-02-11T20:40:18.292Z,83.97
2019-02-11T20:42:47.931Z,83.94
2019-02-11T20:45:22.566Z,84.24
2019-02-11T20:47:52.091Z,83.54
2019-02-11T20:50:21.457Z,83.68
2019-02-11T20:52:50.744Z,83.52
2019-02-11T20:55:20.204Z,83.80
2019-02-11T20:57:49.883Z,84.24
2019-02-11T21:00:20.510Z,83.66
2019-02-11T21:02:49.993Z,84.14
2019-02-11T21:05:19.516Z,84.00
2019-02-11T21:07:48.856Z,83.84
2019-02-11T21:10:18.477Z,83.71
2019-02-11T21:12:48.003Z,82.80
2019-02-11T21:15:17.273Z,83.41
2019-02-11T21:17:46.557Z,82.47
2019-02-11T21:20:21.148Z,82.37
2019-02-11T21:22:50.592Z,82.50
2019-02-11T21:25:19.927Z,82.89
2019-02-11T21:27:49.475Z,82.50
2019-02-11T21:30:18.780Z,82.53
2019-02-11T21:32:48.075Z,83.20
2019-02-11T21:35:17.456Z,82.75
2019-02-11T21:37:46.964Z,82.77
2019-02-11T21:40:16.264Z,83.02
2019-02-11T21:42:45.832Z,83.36
2019-02-11T21:45:15.463Z,82.97
2019-02-11T21:47:44.766Z,83.52
2019-02-11T21:50:15.192Z,83.13
2019-02-11T21:52:44.494Z,83.39
2019-02-11T21:55:14.095Z,83.09
2019-02-11T21:57:43.354Z,82.75
2019-02-11T22:00:15.051Z,82.11
2019-02-11T22:02:44.595Z,82.60
2019-02-11T22:05:14.093Z,82.12
2019-02-11T22:07:43.347Z,82.62
2019-02-11T22:10:14.336Z,81.94
2019-02-11T22:12:43.762Z,82.49
2019-02-11T22:15:14.147Z,82.14
2019-02-11T22:17:43.587Z,82.51
2019-02-11T22:20:14.984Z,82.78
2019-02-11T22:22:44.391Z,83.08
2019-02-11T22:25:13.989Z,83.27
2019-02-11T22:27:43.314Z,83.24
2019-02-11T22:30:14.800Z,83.47
2019-02-11T22:32:44.059Z,82.85
2019-02-11T22:35:13.490Z,83.05
2019-02-11T22:37:42.895Z,82.58
2019-02-11T22:40:12.898Z,83.48
2019-02-11T22:42:42.150Z,82.48
2019-02-11T22:45:14.149Z,83.21
2019-02-11T22:47:43.412Z,83.11
2019-02-11T22:50:13.101Z,83.41
2019-02-11T22:52:42.727Z,83.61
2019-02-11T22:55:12.100Z,83.36
2019-02-11T22:57:41.408Z,84.02
2019-02-11T23:00:40.162Z,83.99
2019-02-11T23:03:09.505Z,84.28
2019-02-11T23:05:38.917Z,83.88
2019-02-11T23:08:08.417Z,83.56
2019-02-11T23:10:37.737Z,83.05
2019-02-11T23:13:07.058Z,83.19
2019-02-11T23:15:36.582Z,83.58
2019-02-11T23:18:05.942Z,83.19
2019-02-11T23:20:35.251Z,83.84
2019-02-11T23:23:04.604Z,83.63
2019-02-11T23:25:33.897Z,83.05
2019-02-11T23:28:03.253Z,83.07
2019-02-11T23:30:32.863Z,83.12
2019-02-11T23:33:02.089Z,83.06
2019-02-11T23:35:31.390Z,83.58
2019-02-11T23:38:00.879Z,83.68
2019-02-11T23:40:30.129Z,83.46
2019-02-11T23:42:59.984Z,83.86
2019-02-11T23:45:29.558Z,83.90
2019-02-11T23:47:58.868Z,84.02
2019-02-11T23:50:28.284Z,84.20
2019-02-11T23:52:57.830Z,84.30
2019-02-11T23:55:27.341Z,83.84
2019-02-11T23:57:56.650Z,83.92
